Atascosa, Texas
Current Conditions -  °F | °C
As of 10:35 PM on Wednesday 22 Oct 2014 (Local Time) from KCVB Reporting Station
Broken Clouds Broken Clouds  
Wind Chill: 75°   Ceiling: 11000
Heat Index: 75°   Visibility: 10mi
Dew Point: 53°   Wind: 5mph
Humidity: 46%   Direction: 100°E
Pressure: 30.09"   Gusts: NA
Location:  29.28°N, 98.74°W
Report Text: KCVB 230335Z AUTO 10004KT 10SM BKN110 24/12 A3009 RMK AO2 T02410117
Loading
Personal Weather Stations






























Interactive Weather Map
Tropical Storm Tracking
New forecast layout! Learn more

10-Day Weather Forecast

Advertisements
Track Severe Weather on mobile